sensor_id;sensor_type;location;lat;lon;timestamp;P1;durP1;ratioP1;P2;durP2;ratioP2
7076;SDS011;3579;48.956;9.154;2023-11-22T00:01:38;1.00;;;0.90;;
7076;SDS011;3579;48.956;9.154;2023-11-22T00:04:04;0.90;;;0.90;;
7076;SDS011;3579;48.956;9.154;2023-11-22T00:06:30;0.80;;;0.80;;
7076;SDS011;3579;48.956;9.154;2023-11-22T00:08:57;1.10;;;1.00;;
7076;SDS011;3579;48.956;9.154;2023-11-22T00:11:23;1.20;;;1.00;;
7076;SDS011;3579;48.956;9.154;2023-11-22T00:13:49;1.40;;;1.00;;
7076;SDS011;3579;48.956;9.154;2023-11-22T00:16:21;1.17;;;1.00;;
7076;SDS011;3579;48.956;9.154;2023-11-22T00:18:47;2.13;;;1.00;;
7076;SDS011;3579;48.956;9.154;2023-11-22T00:21:13;1.00;;;0.90;;
7076;SDS011;3579;48.956;9.154;2023-11-22T00:23:39;1.77;;;1.10;;
7076;SDS011;3579;48.956;9.154;2023-11-22T00:26:05;1.20;;;1.00;;
7076;SDS011;3579;48.956;9.154;2023-11-22T00:28:32;1.00;;;0.90;;
7076;SDS011;3579;48.956;9.154;2023-11-22T00:30:58;0.90;;;0.90;;
7076;SDS011;3579;48.956;9.154;2023-11-22T00:33:24;0.90;;;0.90;;
7076;SDS011;3579;48.956;9.154;2023-11-22T00:35:50;1.13;;;0.97;;
7076;SDS011;3579;48.956;9.154;2023-11-22T00:38:19;1.27;;;1.00;;
7076;SDS011;3579;48.956;9.154;2023-11-22T00:40:45;1.17;;;1.03;;
7076;SDS011;3579;48.956;9.154;2023-11-22T00:43:11;1.00;;;0.90;;
7076;SDS011;3579;48.956;9.154;2023-11-22T00:45:37;1.00;;;0.90;;
7076;SDS011;3579;48.956;9.154;2023-11-22T00:48:03;1.30;;;1.20;;
7076;SDS011;3579;48.956;9.154;2023-11-22T00:50:29;1.10;;;1.00;;
7076;SDS011;3579;48.956;9.154;2023-11-22T00:52:55;1.87;;;1.00;;
7076;SDS011;3579;48.956;9.154;2023-11-22T00:55:21;1.00;;;0.90;;
7076;SDS011;3579;48.956;9.154;2023-11-22T00:57:47;0.90;;;0.90;;
7076;SDS011;3579;48.956;9.154;2023-11-22T01:00:13;1.00;;;0.90;;
7076;SDS011;3579;48.956;9.154;2023-11-22T01:02:40;0.90;;;0.90;;
7076;SDS011;3579;48.956;9.154;2023-11-22T01:05:07;1.60;;;0.93;;
7076;SDS011;3579;48.956;9.154;2023-11-22T01:07:37;1.50;;;1.07;;
7076;SDS011;3579;48.956;9.154;2023-11-22T01:10:03;1.00;;;0.90;;
7076;SDS011;3579;48.956;9.154;2023-11-22T01:12:31;1.00;;;0.90;;
7076;SDS011;3579;48.956;9.154;2023-11-22T01:14:57;0.93;;;0.90;;
7076;SDS011;3579;48.956;9.154;2023-11-22T01:17:23;1.03;;;0.93;;
7076;SDS011;3579;48.956;9.154;2023-11-22T01:19:49;1.07;;;0.97;;
7076;SDS011;3579;48.956;9.154;2023-11-22T01:22:18;1.00;;;0.90;;
7076;SDS011;3579;48.956;9.154;2023-11-22T01:24:45;1.17;;;1.07;;
7076;SDS011;3579;48.956;9.154;2023-11-22T01:27:11;1.00;;;0.90;;
7076;SDS011;3579;48.956;9.154;2023-11-22T01:29:37;1.30;;;0.90;;
7076;SDS011;3579;48.956;9.154;2023-11-22T01:32:03;0.93;;;0.90;;
7076;SDS011;3579;48.956;9.154;2023-11-22T01:34:29;1.07;;;0.97;;
7076;SDS011;3579;48.956;9.154;2023-11-22T01:36:55;1.00;;;0.90;;
7076;SDS011;3579;48.956;9.154;2023-11-22T01:39:21;0.90;;;0.90;;
7076;SDS011;3579;48.956;9.154;2023-11-22T01:41:47;1.33;;;1.00;;
7076;SDS011;3579;48.956;9.154;2023-11-22T01:44:15;0.90;;;0.90;;
7076;SDS011;3579;48.956;9.154;2023-11-22T01:46:42;0.90;;;0.90;;
7076;SDS011;3579;48.956;9.154;2023-11-22T01:49:09;1.10;;;1.00;;
7076;SDS011;3579;48.956;9.154;2023-11-22T01:51:36;1.20;;;1.10;;
7076;SDS011;3579;48.956;9.154;2023-11-22T01:54:03;1.10;;;1.00;;
7076;SDS011;3579;48.956;9.154;2023-11-22T01:56:31;1.20;;;0.90;;
7076;SDS011;3579;48.956;9.154;2023-11-22T01:58:58;1.10;;;1.00;;
7076;SDS011;3579;48.956;9.154;2023-11-22T02:01:26;1.10;;;1.00;;
7076;SDS011;3579;48.956;9.154;2023-11-22T02:03:52;0.90;;;0.80;;
7076;SDS011;3579;48.956;9.154;2023-11-22T02:06:19;1.50;;;1.00;;
7076;SDS011;3579;48.956;9.154;2023-11-22T02:08:47;1.10;;;1.00;;
7076;SDS011;3579;48.956;9.154;2023-11-22T02:11:16;1.00;;;0.90;;
7076;SDS011;3579;48.956;9.154;2023-11-22T02:13:42;1.60;;;0.90;;
7076;SDS011;3579;48.956;9.154;2023-11-22T02:16:08;0.90;;;0.90;;
7076;SDS011;3579;48.956;9.154;2023-11-22T02:18:34;0.80;;;0.80;;
7076;SDS011;3579;48.956;9.154;2023-11-22T02:21:02;1.03;;;0.90;;
7076;SDS011;3579;48.956;9.154;2023-11-22T02:23:28;1.77;;;1.10;;
7076;SDS011;3579;48.956;9.154;2023-11-22T02:25:54;1.10;;;1.00;;
7076;SDS011;3579;48.956;9.154;2023-11-22T02:28:21;0.90;;;0.90;;
7076;SDS011;3579;48.956;9.154;2023-11-22T02:30:47;0.97;;;0.93;;
7076;SDS011;3579;48.956;9.154;2023-11-22T02:33:13;1.10;;;1.00;;
7076;SDS011;3579;48.956;9.154;2023-11-22T02:35:39;0.90;;;0.90;;
7076;SDS011;3579;48.956;9.154;2023-11-22T02:38:06;1.07;;;0.90;;
7076;SDS011;3579;48.956;9.154;2023-11-22T02:40:32;1.10;;;1.00;;
7076;SDS011;3579;48.956;9.154;2023-11-22T02:42:59;1.20;;;1.00;;
7076;SDS011;3579;48.956;9.154;2023-11-22T02:45:32;1.47;;;1.10;;
7076;SDS011;3579;48.956;9.154;2023-11-22T02:47:58;0.90;;;0.90;;
7076;SDS011;3579;48.956;9.154;2023-11-22T02:50:27;1.10;;;1.00;;
7076;SDS011;3579;48.956;9.154;2023-11-22T02:52:53;1.10;;;1.00;;
7076;SDS011;3579;48.956;9.154;2023-11-22T02:55:19;1.20;;;1.00;;
7076;SDS011;3579;48.956;9.154;2023-11-22T02:57:45;1.10;;;1.00;;
7076;SDS011;3579;48.956;9.154;2023-11-22T03:00:11;1.10;;;1.00;;
7076;SDS011;3579;48.956;9.154;2023-11-22T03:02:42;1.10;;;1.00;;
7076;SDS011;3579;48.956;9.154;2023-11-22T03:05:08;1.27;;;1.10;;
7076;SDS011;3579;48.956;9.154;2023-11-22T03:07:35;1.03;;;0.93;;
7076;SDS011;3579;48.956;9.154;2023-11-22T03:10:02;0.80;;;0.80;;
7076;SDS011;3579;48.956;9.154;2023-11-22T03:12:28;1.10;;;1.00;;
7076;SDS011;3579;48.956;9.154;2023-11-22T03:15:13;1.10;;;1.00;;
7076;SDS011;3579;48.956;9.154;2023-11-22T03:17:39;1.20;;;1.10;;
7076;SDS011;3579;48.956;9.154;2023-11-22T03:20:05;1.10;;;1.00;;
7076;SDS011;3579;48.956;9.154;2023-11-22T03:22:36;0.80;;;0.80;;
7076;SDS011;3579;48.956;9.154;2023-11-22T03:25:04;1.40;;;1.03;;
7076;SDS011;3579;48.956;9.154;2023-11-22T03:27:31;1.70;;;1.00;;
7076;SDS011;3579;48.956;9.154;2023-11-22T03:29:57;1.10;;;1.00;;
7076;SDS011;3579;48.956;9.154;2023-11-22T03:32:23;1.17;;;0.90;;
7076;SDS011;3579;48.956;9.154;2023-11-22T03:34:49;1.00;;;0.90;;
7076;SDS011;3579;48.956;9.154;2023-11-22T03:37:16;1.23;;;1.03;;
7076;SDS011;3579;48.956;9.154;2023-11-22T03:39:43;1.07;;;0.97;;
7076;SDS011;3579;48.956;9.154;2023-11-22T03:42:14;1.23;;;1.13;;
7076;SDS011;3579;48.956;9.154;2023-11-22T03:44:41;0.93;;;0.90;;
7076;SDS011;3579;48.956;9.154;2023-11-22T03:47:09;1.13;;;1.03;;
7076;SDS011;3579;48.956;9.154;2023-11-22T03:49:36;0.90;;;0.90;;
7076;SDS011;3579;48.956;9.154;2023-11-22T03:52:02;1.20;;;1.00;;
7076;SDS011;3579;48.956;9.154;2023-11-22T03:54:29;1.10;;;1.00;;
7076;SDS011;3579;48.956;9.154;2023-11-22T03:56:55;0.80;;;0.80;;
7076;SDS011;3579;48.956;9.154;2023-11-22T03:59:21;1.20;;;0.90;;
7076;SDS011;3579;48.956;9.154;2023-11-22T04:01:47;1.20;;;1.10;;
7076;SDS011;3579;48.956;9.154;2023-11-22T04:04:13;1.10;;;1.00;;
7076;SDS011;3579;48.956;9.154;2023-11-22T04:06:39;1.37;;;1.20;;
7076;SDS011;3579;48.956;9.154;2023-11-22T04:09:05;0.93;;;0.83;;
7076;SDS011;3579;48.956;9.154;2023-11-22T04:11:33;0.90;;;0.90;;
7076;SDS011;3579;48.956;9.154;2023-11-22T04:14:00;0.87;;;0.87;;
7076;SDS011;3579;48.956;9.154;2023-11-22T04:16:26;1.03;;;1.00;;
7076;SDS011;3579;48.956;9.154;2023-11-22T04:18:52;1.00;;;1.00;;
7076;SDS011;3579;48.956;9.154;2023-11-22T04:21:18;0.93;;;0.90;;
7076;SDS011;3579;48.956;9.154;2023-11-22T04:23:44;0.87;;;0.87;;
7076;SDS011;3579;48.956;9.154;2023-11-22T04:26:10;0.83;;;0.83;;
7076;SDS011;3579;48.956;9.154;2023-11-22T04:28:36;1.10;;;1.00;;
7076;SDS011;3579;48.956;9.154;2023-11-22T04:31:02;0.90;;;0.90;;
7076;SDS011;3579;48.956;9.154;2023-11-22T04:33:29;1.10;;;1.00;;
7076;SDS011;3579;48.956;9.154;2023-11-22T04:35:55;1.20;;;1.10;;
7076;SDS011;3579;48.956;9.154;2023-11-22T04:38:21;1.27;;;0.90;;
7076;SDS011;3579;48.956;9.154;2023-11-22T04:40:47;0.90;;;0.90;;
7076;SDS011;3579;48.956;9.154;2023-11-22T04:43:13;1.30;;;1.07;;
7076;SDS011;3579;48.956;9.154;2023-11-22T04:45:39;1.10;;;1.00;;
7076;SDS011;3579;48.956;9.154;2023-11-22T04:48:05;1.10;;;1.00;;
7076;SDS011;3579;48.956;9.154;2023-11-22T04:50:32;1.10;;;1.00;;
7076;SDS011;3579;48.956;9.154;2023-11-22T04:52:58;0.87;;;0.87;;
7076;SDS011;3579;48.956;9.154;2023-11-22T04:55:27;1.17;;;1.07;;
7076;SDS011;3579;48.956;9.154;2023-11-22T04:57:54;1.10;;;1.00;;
7076;SDS011;3579;48.956;9.154;2023-11-22T05:00:23;1.10;;;1.00;;
7076;SDS011;3579;48.956;9.154;2023-11-22T05:02:49;0.80;;;0.80;;
7076;SDS011;3579;48.956;9.154;2023-11-22T05:05:15;1.10;;;1.00;;
7076;SDS011;3579;48.956;9.154;2023-11-22T05:07:41;1.13;;;1.03;;
7076;SDS011;3579;48.956;9.154;2023-11-22T05:10:09;1.13;;;1.03;;
7076;SDS011;3579;48.956;9.154;2023-11-22T05:12:36;1.20;;;1.10;;
7076;SDS011;3579;48.956;9.154;2023-11-22T05:15:02;1.20;;;1.10;;
7076;SDS011;3579;48.956;9.154;2023-11-22T05:17:28;1.10;;;1.00;;
7076;SDS011;3579;48.956;9.154;2023-11-22T05:19:55;1.30;;;1.10;;
7076;SDS011;3579;48.956;9.154;2023-11-22T05:22:21;1.00;;;0.90;;
7076;SDS011;3579;48.956;9.154;2023-11-22T05:24:48;0.97;;;0.90;;
7076;SDS011;3579;48.956;9.154;2023-11-22T05:27:15;1.20;;;1.10;;
7076;SDS011;3579;48.956;9.154;2023-11-22T05:29:41;1.20;;;1.10;;
7076;SDS011;3579;48.956;9.154;2023-11-22T05:32:08;1.10;;;1.00;;
7076;SDS011;3579;48.956;9.154;2023-11-22T05:34:34;1.00;;;0.90;;
7076;SDS011;3579;48.956;9.154;2023-11-22T05:37:00;1.20;;;1.10;;
7076;SDS011;3579;48.956;9.154;2023-11-22T05:39:26;0.90;;;0.90;;
7076;SDS011;3579;48.956;9.154;2023-11-22T05:41:52;1.30;;;1.20;;
7076;SDS011;3579;48.956;9.154;2023-11-22T05:44:19;1.10;;;1.00;;
7076;SDS011;3579;48.956;9.154;2023-11-22T05:46:45;1.40;;;1.10;;
7076;SDS011;3579;48.956;9.154;2023-11-22T05:49:11;1.00;;;0.90;;
7076;SDS011;3579;48.956;9.154;2023-11-22T05:51:37;0.93;;;0.87;;
7076;SDS011;3579;48.956;9.154;2023-11-22T05:54:03;1.20;;;1.10;;
7076;SDS011;3579;48.956;9.154;2023-11-22T05:56:30;1.13;;;1.03;;
7076;SDS011;3579;48.956;9.154;2023-11-22T05:58:56;1.00;;;0.90;;
7076;SDS011;3579;48.956;9.154;2023-11-22T06:01:23;2.70;;;1.10;;
7076;SDS011;3579;48.956;9.154;2023-11-22T06:03:49;0.97;;;0.90;;
7076;SDS011;3579;48.956;9.154;2023-11-22T06:06:15;1.10;;;1.00;;
7076;SDS011;3579;48.956;9.154;2023-11-22T06:08:42;1.10;;;1.00;;
7076;SDS011;3579;48.956;9.154;2023-11-22T06:11:08;1.10;;;1.00;;
7076;SDS011;3579;48.956;9.154;2023-11-22T06:13:34;0.93;;;0.93;;
7076;SDS011;3579;48.956;9.154;2023-11-22T06:16:01;1.13;;;1.03;;
7076;SDS011;3579;48.956;9.154;2023-11-22T06:18:27;1.03;;;0.97;;
7076;SDS011;3579;48.956;9.154;2023-11-22T06:20:58;1.20;;;1.10;;
7076;SDS011;3579;48.956;9.154;2023-11-22T06:23:24;1.30;;;1.07;;
7076;SDS011;3579;48.956;9.154;2023-11-22T06:25:50;1.17;;;1.07;;
7076;SDS011;3579;48.956;9.154;2023-11-22T06:28:17;1.10;;;1.00;;
7076;SDS011;3579;48.956;9.154;2023-11-22T06:30:43;1.20;;;1.10;;
7076;SDS011;3579;48.956;9.154;2023-11-22T06:33:09;1.20;;;1.10;;
7076;SDS011;3579;48.956;9.154;2023-11-22T06:35:36;1.20;;;1.10;;
7076;SDS011;3579;48.956;9.154;2023-11-22T06:38:02;1.30;;;1.10;;
7076;SDS011;3579;48.956;9.154;2023-11-22T06:40:29;1.20;;;1.00;;
7076;SDS011;3579;48.956;9.154;2023-11-22T06:42:55;1.17;;;1.07;;
7076;SDS011;3579;48.956;9.154;2023-11-22T06:45:21;1.20;;;1.00;;
7076;SDS011;3579;48.956;9.154;2023-11-22T06:47:47;1.10;;;1.00;;
7076;SDS011;3579;48.956;9.154;2023-11-22T06:50:15;0.90;;;0.90;;
7076;SDS011;3579;48.956;9.154;2023-11-22T06:52:42;3.07;;;1.10;;
7076;SDS011;3579;48.956;9.154;2023-11-22T06:55:09;1.20;;;1.10;;
7076;SDS011;3579;48.956;9.154;2023-11-22T06:57:35;1.10;;;1.00;;
7076;SDS011;3579;48.956;9.154;2023-11-22T07:00:02;1.20;;;1.10;;
7076;SDS011;3579;48.956;9.154;2023-11-22T07:02:36;1.20;;;1.10;;
7076;SDS011;3579;48.956;9.154;2023-11-22T07:05:02;1.13;;;1.03;;
7076;SDS011;3579;48.956;9.154;2023-11-22T07:07:29;1.33;;;1.00;;
7076;SDS011;3579;48.956;9.154;2023-11-22T07:09:55;1.37;;;1.20;;
7076;SDS011;3579;48.956;9.154;2023-11-22T07:12:24;1.10;;;1.00;;
7076;SDS011;3579;48.956;9.154;2023-11-22T07:14:52;1.20;;;1.10;;
7076;SDS011;3579;48.956;9.154;2023-11-22T07:17:18;1.20;;;1.10;;
7076;SDS011;3579;48.956;9.154;2023-11-22T07:19:47;1.00;;;0.90;;
7076;SDS011;3579;48.956;9.154;2023-11-22T07:22:16;1.20;;;1.07;;
7076;SDS011;3579;48.956;9.154;2023-11-22T07:24:45;1.30;;;1.10;;
7076;SDS011;3579;48.956;9.154;2023-11-22T07:27:13;1.10;;;0.97;;
7076;SDS011;3579;48.956;9.154;2023-11-22T07:29:40;3.13;;;1.20;;
7076;SDS011;3579;48.956;9.154;2023-11-22T07:32:07;1.37;;;1.10;;
7076;SDS011;3579;48.956;9.154;2023-11-22T07:34:34;1.27;;;1.10;;
7076;SDS011;3579;48.956;9.154;2023-11-22T07:37:01;2.13;;;1.30;;
7076;SDS011;3579;48.956;9.154;2023-11-22T07:39:28;1.60;;;1.20;;
7076;SDS011;3579;48.956;9.154;2023-11-22T07:41:54;2.03;;;1.20;;
7076;SDS011;3579;48.956;9.154;2023-11-22T07:44:22;4.33;;;1.10;;
7076;SDS011;3579;48.956;9.154;2023-11-22T07:46:49;2.73;;;1.53;;
7076;SDS011;3579;48.956;9.154;2023-11-22T07:49:17;1.83;;;1.20;;
7076;SDS011;3579;48.956;9.154;2023-11-22T07:51:44;1.23;;;1.00;;
7076;SDS011;3579;48.956;9.154;2023-11-22T07:54:11;1.30;;;1.07;;
7076;SDS011;3579;48.956;9.154;2023-11-22T07:56:42;1.53;;;1.03;;
7076;SDS011;3579;48.956;9.154;2023-11-22T07:59:12;3.73;;;1.10;;
7076;SDS011;3579;48.956;9.154;2023-11-22T08:01:38;1.57;;;1.10;;
7076;SDS011;3579;48.956;9.154;2023-11-22T08:04:08;1.50;;;1.20;;
7076;SDS011;3579;48.956;9.154;2023-11-22T08:06:35;6.50;;;1.00;;
7076;SDS011;3579;48.956;9.154;2023-11-22T08:09:01;2.03;;;1.10;;
7076;SDS011;3579;48.956;9.154;2023-11-22T08:11:29;2.43;;;1.13;;
7076;SDS011;3579;48.956;9.154;2023-11-22T08:13:55;1.53;;;1.10;;
7076;SDS011;3579;48.956;9.154;2023-11-22T08:16:27;1.20;;;1.00;;
7076;SDS011;3579;48.956;9.154;2023-11-22T08:18:54;1.10;;;1.00;;
7076;SDS011;3579;48.956;9.154;2023-11-22T08:21:22;1.97;;;1.20;;
7076;SDS011;3579;48.956;9.154;2023-11-22T08:23:49;1.20;;;1.10;;
7076;SDS011;3579;48.956;9.154;2023-11-22T08:26:15;1.60;;;1.03;;
7076;SDS011;3579;48.956;9.154;2023-11-22T08:28:42;1.60;;;1.10;;
7076;SDS011;3579;48.956;9.154;2023-11-22T08:31:08;2.20;;;1.00;;
7076;SDS011;3579;48.956;9.154;2023-11-22T08:33:38;6.10;;;1.37;;
7076;SDS011;3579;48.956;9.154;2023-11-22T08:36:05;2.50;;;0.93;;
7076;SDS011;3579;48.956;9.154;2023-11-22T08:38:33;7.37;;;1.10;;
7076;SDS011;3579;48.956;9.154;2023-11-22T08:41:06;2.33;;;1.20;;
7076;SDS011;3579;48.956;9.154;2023-11-22T08:43:33;5.37;;;1.10;;
7076;SDS011;3579;48.956;9.154;2023-11-22T08:45:59;1.30;;;1.20;;
7076;SDS011;3579;48.956;9.154;2023-11-22T08:48:32;2.40;;;1.17;;
7076;SDS011;3579;48.956;9.154;2023-11-22T08:51:02;3.83;;;1.47;;
7076;SDS011;3579;48.956;9.154;2023-11-22T08:53:29;1.63;;;1.23;;
7076;SDS011;3579;48.956;9.154;2023-11-22T08:55:55;3.50;;;1.03;;
7076;SDS011;3579;48.956;9.154;2023-11-22T08:58:22;2.80;;;1.10;;
7076;SDS011;3579;48.956;9.154;2023-11-22T09:00:49;4.23;;;1.10;;
7076;SDS011;3579;48.956;9.154;2023-11-22T09:03:18;1.70;;;1.20;;
7076;SDS011;3579;48.956;9.154;2023-11-22T09:05:44;3.27;;;1.17;;
7076;SDS011;3579;48.956;9.154;2023-11-22T09:08:11;3.53;;;1.40;;
7076;SDS011;3579;48.956;9.154;2023-11-22T09:10:41;2.03;;;1.20;;
7076;SDS011;3579;48.956;9.154;2023-11-22T09:13:08;3.73;;;1.20;;
7076;SDS011;3579;48.956;9.154;2023-11-22T09:15:34;2.40;;;1.37;;
7076;SDS011;3579;48.956;9.154;2023-11-22T09:18:01;3.40;;;1.40;;
7076;SDS011;3579;48.956;9.154;2023-11-22T09:20:28;3.83;;;1.30;;
7076;SDS011;3579;48.956;9.154;2023-11-22T09:22:55;3.70;;;1.37;;
7076;SDS011;3579;48.956;9.154;2023-11-22T09:25:22;3.40;;;1.20;;
7076;SDS011;3579;48.956;9.154;2023-11-22T09:27:49;2.83;;;1.13;;
7076;SDS011;3579;48.956;9.154;2023-11-22T09:30:33;2.53;;;1.20;;
7076;SDS011;3579;48.956;9.154;2023-11-22T09:33:09;2.90;;;1.30;;
7076;SDS011;3579;48.956;9.154;2023-11-22T09:35:40;4.40;;;1.60;;
7076;SDS011;3579;48.956;9.154;2023-11-22T09:38:09;2.67;;;1.30;;
7076;SDS011;3579;48.956;9.154;2023-11-22T09:40:47;2.20;;;1.30;;
7076;SDS011;3579;48.956;9.154;2023-11-22T09:43:14;4.17;;;1.40;;
7076;SDS011;3579;48.956;9.154;2023-11-22T09:45:49;4.13;;;1.30;;
7076;SDS011;3579;48.956;9.154;2023-11-22T09:53:58;3.40;;;1.30;;
7076;SDS011;3579;48.956;9.154;2023-11-22T09:56:31;4.27;;;1.40;;
7076;SDS011;3579;48.956;9.154;2023-11-22T09:58:59;3.03;;;1.10;;
7076;SDS011;3579;48.956;9.154;2023-11-22T10:01:28;2.97;;;1.20;;
7076;SDS011;3579;48.956;9.154;2023-11-22T10:03:59;3.43;;;1.30;;
7076;SDS011;3579;48.956;9.154;2023-11-22T10:06:25;1.30;;;1.20;;
7076;SDS011;3579;48.956;9.154;2023-11-22T10:08:56;2.03;;;1.10;;
7076;SDS011;3579;48.956;9.154;2023-11-22T10:11:22;3.10;;;1.30;;
7076;SDS011;3579;48.956;9.154;2023-11-22T10:13:48;3.17;;;1.40;;
7076;SDS011;3579;48.956;9.154;2023-11-22T10:16:16;1.60;;;1.13;;
7076;SDS011;3579;48.956;9.154;2023-11-22T10:18:46;1.30;;;1.20;;
7076;SDS011;3579;48.956;9.154;2023-11-22T10:21:26;2.03;;;1.20;;
7076;SDS011;3579;48.956;9.154;2023-11-22T10:23:56;2.70;;;1.40;;
7076;SDS011;3579;48.956;9.154;2023-11-22T10:26:25;1.20;;;1.10;;
7076;SDS011;3579;48.956;9.154;2023-11-22T10:28:54;4.03;;;1.30;;
7076;SDS011;3579;48.956;9.154;2023-11-22T10:31:22;2.13;;;1.20;;
7076;SDS011;3579;48.956;9.154;2023-11-22T10:33:49;3.70;;;1.20;;
7076;SDS011;3579;48.956;9.154;2023-11-22T10:36:16;1.67;;;1.20;;
7076;SDS011;3579;48.956;9.154;2023-11-22T10:38:47;2.47;;;1.47;;
7076;SDS011;3579;48.956;9.154;2023-11-22T10:41:14;2.53;;;1.20;;
7076;SDS011;3579;48.956;9.154;2023-11-22T10:43:40;2.23;;;1.47;;
7076;SDS011;3579;48.956;9.154;2023-11-22T10:46:10;2.60;;;1.27;;
7076;SDS011;3579;48.956;9.154;2023-11-22T10:48:38;2.00;;;1.30;;
7076;SDS011;3579;48.956;9.154;2023-11-22T10:51:05;3.63;;;1.03;;
7076;SDS011;3579;48.956;9.154;2023-11-22T10:53:40;2.23;;;1.47;;
7076;SDS011;3579;48.956;9.154;2023-11-22T10:56:17;2.37;;;1.30;;
7076;SDS011;3579;48.956;9.154;2023-11-22T10:58:48;2.33;;;1.20;;
7076;SDS011;3579;48.956;9.154;2023-11-22T11:01:16;3.80;;;1.20;;
7076;SDS011;3579;48.956;9.154;2023-11-22T11:03:45;1.90;;;1.20;;
7076;SDS011;3579;48.956;9.154;2023-11-22T11:06:18;3.30;;;1.37;;
7076;SDS011;3579;48.956;9.154;2023-11-22T11:08:53;2.70;;;1.20;;
7076;SDS011;3579;48.956;9.154;2023-11-22T11:11:22;3.50;;;1.30;;
7076;SDS011;3579;48.956;9.154;2023-11-22T11:13:50;4.37;;;1.30;;
7076;SDS011;3579;48.956;9.154;2023-11-22T11:16:18;3.50;;;1.63;;
7076;SDS011;3579;48.956;9.154;2023-11-22T11:18:46;2.10;;;1.27;;
7076;SDS011;3579;48.956;9.154;2023-11-22T11:21:14;4.10;;;1.30;;
7076;SDS011;3579;48.956;9.154;2023-11-22T11:23:41;1.27;;;1.10;;
7076;SDS011;3579;48.956;9.154;2023-11-22T11:26:16;1.83;;;1.27;;
7076;SDS011;3579;48.956;9.154;2023-11-22T11:28:47;2.67;;;1.23;;
7076;SDS011;3579;48.956;9.154;2023-11-22T11:31:15;3.53;;;1.20;;
7076;SDS011;3579;48.956;9.154;2023-11-22T11:36:24;1.90;;;1.27;;
7076;SDS011;3579;48.956;9.154;2023-11-22T11:38:56;3.27;;;1.20;;
7076;SDS011;3579;48.956;9.154;2023-11-22T11:41:32;2.23;;;1.30;;
7076;SDS011;3579;48.956;9.154;2023-11-22T11:44:00;4.03;;;1.30;;
7076;SDS011;3579;48.956;9.154;2023-11-22T11:46:28;3.77;;;1.40;;
7076;SDS011;3579;48.956;9.154;2023-11-22T11:48:56;4.45;;;1.40;;
7076;SDS011;3579;48.956;9.154;2023-11-22T11:51:24;2.00;;;1.30;;
7076;SDS011;3579;48.956;9.154;2023-11-22T11:53:53;5.80;;;1.50;;
7076;SDS011;3579;48.956;9.154;2023-11-22T11:56:20;3.13;;;1.17;;
7076;SDS011;3579;48.956;9.154;2023-11-22T11:58:47;3.67;;;1.27;;
7076;SDS011;3579;48.956;9.154;2023-11-22T12:01:16;6.13;;;1.23;;
7076;SDS011;3579;48.956;9.154;2023-11-22T12:03:43;3.37;;;1.60;;
7076;SDS011;3579;48.956;9.154;2023-11-22T12:06:09;3.60;;;1.33;;
7076;SDS011;3579;48.956;9.154;2023-11-22T12:08:39;9.90;;;2.10;;
7076;SDS011;3579;48.956;9.154;2023-11-22T12:11:06;5.17;;;1.30;;
7076;SDS011;3579;48.956;9.154;2023-11-22T12:13:34;5.17;;;1.27;;
7076;SDS011;3579;48.956;9.154;2023-11-22T12:16:07;3.53;;;1.50;;
7076;SDS011;3579;48.956;9.154;2023-11-22T12:18:40;4.80;;;1.47;;
7076;SDS011;3579;48.956;9.154;2023-11-22T12:21:08;3.97;;;1.43;;
7076;SDS011;3579;48.956;9.154;2023-11-22T12:23:38;4.27;;;1.33;;
7076;SDS011;3579;48.956;9.154;2023-11-22T12:26:09;2.00;;;1.40;;
7076;SDS011;3579;48.956;9.154;2023-11-22T12:28:40;2.23;;;1.30;;
7076;SDS011;3579;48.956;9.154;2023-11-22T12:31:10;3.03;;;1.23;;
7076;SDS011;3579;48.956;9.154;2023-11-22T12:33:38;1.87;;;1.20;;
7076;SDS011;3579;48.956;9.154;2023-11-22T12:36:06;5.43;;;1.60;;
7076;SDS011;3579;48.956;9.154;2023-11-22T12:38:35;2.53;;;1.30;;
7076;SDS011;3579;48.956;9.154;2023-11-22T12:41:01;3.10;;;1.50;;
7076;SDS011;3579;48.956;9.154;2023-11-22T12:43:31;1.60;;;1.37;;
7076;SDS011;3579;48.956;9.154;2023-11-22T12:45:58;4.70;;;1.50;;
7076;SDS011;3579;48.956;9.154;2023-11-22T12:48:26;2.53;;;1.20;;
7076;SDS011;3579;48.956;9.154;2023-11-22T12:50:55;1.97;;;1.30;;
7076;SDS011;3579;48.956;9.154;2023-11-22T12:53:22;2.87;;;1.37;;
7076;SDS011;3579;48.956;9.154;2023-11-22T12:55:51;1.90;;;1.40;;
7076;SDS011;3579;48.956;9.154;2023-11-22T12:58:18;6.90;;;1.60;;
7076;SDS011;3579;48.956;9.154;2023-11-22T13:00:46;1.63;;;1.17;;
7076;SDS011;3579;48.956;9.154;2023-11-22T13:03:13;2.13;;;1.40;;
7076;SDS011;3579;48.956;9.154;2023-11-22T13:05:40;1.83;;;1.37;;
7076;SDS011;3579;48.956;9.154;2023-11-22T13:08:11;1.97;;;1.30;;
7076;SDS011;3579;48.956;9.154;2023-11-22T13:10:48;1.43;;;1.30;;
7076;SDS011;3579;48.956;9.154;2023-11-22T13:13:25;1.80;;;1.30;;
7076;SDS011;3579;48.956;9.154;2023-11-22T13:15:53;1.60;;;1.40;;
7076;SDS011;3579;48.956;9.154;2023-11-22T13:18:19;3.30;;;1.40;;
7076;SDS011;3579;48.956;9.154;2023-11-22T13:20:46;2.40;;;1.47;;
7076;SDS011;3579;48.956;9.154;2023-11-22T13:23:14;1.43;;;1.30;;
7076;SDS011;3579;48.956;9.154;2023-11-22T13:25:41;3.63;;;1.40;;
7076;SDS011;3579;48.956;9.154;2023-11-22T13:28:08;3.57;;;1.50;;
7076;SDS011;3579;48.956;9.154;2023-11-22T13:30:34;3.17;;;1.60;;
7076;SDS011;3579;48.956;9.154;2023-11-22T13:33:01;1.57;;;1.20;;
7076;SDS011;3579;48.956;9.154;2023-11-22T13:35:28;3.23;;;1.23;;
7076;SDS011;3579;48.956;9.154;2023-11-22T13:38:03;2.67;;;1.30;;
7076;SDS011;3579;48.956;9.154;2023-11-22T13:40:35;2.90;;;1.37;;
7076;SDS011;3579;48.956;9.154;2023-11-22T13:43:01;1.57;;;1.30;;
7076;SDS011;3579;48.956;9.154;2023-11-22T13:45:30;2.23;;;1.33;;
7076;SDS011;3579;48.956;9.154;2023-11-22T13:47:56;2.60;;;1.10;;
7076;SDS011;3579;48.956;9.154;2023-11-22T13:50:41;3.17;;;1.30;;
7076;SDS011;3579;48.956;9.154;2023-11-22T13:53:08;1.80;;;1.33;;
7076;SDS011;3579;48.956;9.154;2023-11-22T13:55:36;2.83;;;1.40;;
7076;SDS011;3579;48.956;9.154;2023-11-22T13:58:02;3.27;;;1.60;;
7076;SDS011;3579;48.956;9.154;2023-11-22T14:00:30;4.17;;;1.40;;
7076;SDS011;3579;48.956;9.154;2023-11-22T14:03:00;2.60;;;1.40;;
7076;SDS011;3579;48.956;9.154;2023-11-22T14:05:36;1.63;;;1.27;;
7076;SDS011;3579;48.956;9.154;2023-11-22T14:08:04;2.70;;;1.30;;
7076;SDS011;3579;48.956;9.154;2023-11-22T14:10:31;1.57;;;1.37;;
7076;SDS011;3579;48.956;9.154;2023-11-22T14:12:58;2.60;;;1.20;;
7076;SDS011;3579;48.956;9.154;2023-11-22T14:15:26;3.33;;;1.60;;
7076;SDS011;3579;48.956;9.154;2023-11-22T14:17:56;2.27;;;1.30;;
7076;SDS011;3579;48.956;9.154;2023-11-22T14:20:23;2.90;;;1.40;;
7076;SDS011;3579;48.956;9.154;2023-11-22T14:22:49;7.37;;;1.40;;
7076;SDS011;3579;48.956;9.154;2023-11-22T14:25:16;2.93;;;1.57;;
7076;SDS011;3579;48.956;9.154;2023-11-22T14:27:43;1.80;;;1.40;;
7076;SDS011;3579;48.956;9.154;2023-11-22T14:30:13;3.00;;;1.37;;
7076;SDS011;3579;48.956;9.154;2023-11-22T14:32:42;2.70;;;1.43;;
7076;SDS011;3579;48.956;9.154;2023-11-22T14:35:09;4.17;;;1.33;;
7076;SDS011;3579;48.956;9.154;2023-11-22T14:37:36;4.20;;;1.37;;
7076;SDS011;3579;48.956;9.154;2023-11-22T14:40:09;5.73;;;1.70;;
7076;SDS011;3579;48.956;9.154;2023-11-22T14:42:42;3.53;;;1.30;;
7076;SDS011;3579;48.956;9.154;2023-11-22T14:45:14;3.77;;;1.40;;
7076;SDS011;3579;48.956;9.154;2023-11-22T14:47:41;2.97;;;1.37;;
7076;SDS011;3579;48.956;9.154;2023-11-22T14:50:10;4.23;;;1.50;;
7076;SDS011;3579;48.956;9.154;2023-11-22T14:52:37;3.37;;;1.57;;
7076;SDS011;3579;48.956;9.154;2023-11-22T14:55:04;4.67;;;1.40;;
7076;SDS011;3579;48.956;9.154;2023-11-22T14:57:31;4.20;;;1.37;;
7076;SDS011;3579;48.956;9.154;2023-11-22T14:59:57;3.13;;;1.43;;
7076;SDS011;3579;48.956;9.154;2023-11-22T15:02:24;4.00;;;1.83;;
7076;SDS011;3579;48.956;9.154;2023-11-22T15:04:52;2.03;;;1.40;;
7076;SDS011;3579;48.956;9.154;2023-11-22T15:07:18;1.90;;;1.20;;
7076;SDS011;3579;48.956;9.154;2023-11-22T15:09:44;2.40;;;1.33;;
7076;SDS011;3579;48.956;9.154;2023-11-22T15:12:11;2.47;;;1.40;;
7076;SDS011;3579;48.956;9.154;2023-11-22T15:14:37;2.87;;;1.40;;
7076;SDS011;3579;48.956;9.154;2023-11-22T15:17:04;3.03;;;1.40;;
7076;SDS011;3579;48.956;9.154;2023-11-22T15:19:30;3.80;;;1.40;;
7076;SDS011;3579;48.956;9.154;2023-11-22T15:21:56;3.37;;;1.30;;
7076;SDS011;3579;48.956;9.154;2023-11-22T15:24:23;3.40;;;1.20;;
7076;SDS011;3579;48.956;9.154;2023-11-22T15:26:49;1.20;;;1.10;;